Michigan, North Dakota
Current Conditions -  °F | °C
As of 5:58 PM on Saturday 25 Oct 2014 (Local Time) from KRDR Reporting Station
Clear Clear  
Wind Chill: 56°   Ceiling: Unl
Heat Index: 56°   Visibility: 10mi
Dew Point: 27°   Wind: 6mph
Humidity: 33%   Direction: 290°WNW
Pressure: 30.04"   Gusts: NA
Location:  48.02°N, 98.12°W
Report Text: KRDR 252258Z AUTO 29005KT 10SM CLR 13/M03 A3004 RMK AO2 SLP182 T01311029
Loading
Personal Weather Stations






























Interactive Weather Map
Tropical Storm Tracking
New forecast layout! Learn more

10-Day Weather Forecast

Advertisements
Track Severe Weather on mobile